createdAt,value
2022-12-08T00:00:45.518Z,995.85
2022-12-08T00:01:49.038Z,995.8
2022-12-08T00:02:52.850Z,995.8
2022-12-08T00:03:55.609Z,995.81
2022-12-08T00:04:58.219Z,995.84
2022-12-08T00:06:01.062Z,995.77
2022-12-08T00:07:03.628Z,995.76
2022-12-08T00:08:06.720Z,995.8
2022-12-08T00:09:09.397Z,995.74
2022-12-08T00:10:48.265Z,995.74
2022-12-08T00:11:33.788Z,995.62
2022-12-08T00:12:36.562Z,995.64
2022-12-08T00:13:39.147Z,995.65
2022-12-08T00:14:41.730Z,995.67
2022-12-08T00:15:44.345Z,995.7
2022-12-08T00:16:47.281Z,995.67
2022-12-08T00:17:49.948Z,995.65
2022-12-08T00:18:52.560Z,995.63
2022-12-08T00:19:55.158Z,995.66
2022-12-08T00:20:57.730Z,995.58
2022-12-08T00:22:00.353Z,995.58
2022-12-08T00:23:02.987Z,995.57
2022-12-08T00:24:05.590Z,995.54
2022-12-08T00:25:08.174Z,995.56
2022-12-08T00:26:10.798Z,995.56
2022-12-08T00:27:13.400Z,995.46
2022-12-08T00:28:16.043Z,995.46
2022-12-08T00:29:18.962Z,995.46
2022-12-08T00:30:21.578Z,995.44
2022-12-08T00:31:24.435Z,995.43
2022-12-08T00:32:27.037Z,995.38
2022-12-08T00:33:29.623Z,995.45
2022-12-08T00:34:32.223Z,995.34
2022-12-08T00:35:43.890Z,995.29
2022-12-08T00:36:46.047Z,995.33
2022-12-08T00:37:48.592Z,995.31
2022-12-08T00:38:51.195Z,995.27
2022-12-08T00:39:53.959Z,995.26
2022-12-08T00:40:56.625Z,995.24
2022-12-08T00:41:59.255Z,995.23
2022-12-08T00:43:01.997Z,995.19
2022-12-08T00:44:04.663Z,995.23
2022-12-08T00:45:07.340Z,995.17
2022-12-08T00:46:10.308Z,995.23
2022-12-08T00:47:12.965Z,995.24
2022-12-08T00:48:15.634Z,995.2
2022-12-08T00:49:18.201Z,995.17
2022-12-08T00:50:20.846Z,995.19
2022-12-08T00:51:23.469Z,995.18
2022-12-08T00:52:26.050Z,995.2
2022-12-08T00:53:28.617Z,995.15
2022-12-08T00:54:31.172Z,995.18
2022-12-08T00:55:33.816Z,995.14
2022-12-08T00:56:36.411Z,995.21
2022-12-08T00:57:38.993Z,995.2
2022-12-08T00:58:41.564Z,995.17
2022-12-08T00:59:44.386Z,995.18
2022-12-08T01:00:47.253Z,995.16
2022-12-08T01:01:49.878Z,995.15
2022-12-08T01:02:52.784Z,995.17
2022-12-08T01:03:55.450Z,995.16
2022-12-08T01:04:58.060Z,995.14
2022-12-08T01:06:00.651Z,995.13
2022-12-08T01:07:03.267Z,995.16
2022-12-08T01:08:06.286Z,995.14
2022-12-08T01:09:08.920Z,995.13
2022-12-08T01:10:11.489Z,995.15
2022-12-08T01:11:14.078Z,995.17
2022-12-08T01:12:16.681Z,995.2
2022-12-08T01:13:19.321Z,995.2
2022-12-08T01:14:21.894Z,995.13
2022-12-08T01:15:28.027Z,995.19
2022-12-08T01:16:30.700Z,995.18
2022-12-08T01:17:33.279Z,995.25
2022-12-08T01:18:35.849Z,995.19
2022-12-08T01:19:38.446Z,995.23
2022-12-08T01:20:41.071Z,995.24
2022-12-08T01:21:43.716Z,995.29
2022-12-08T01:22:46.311Z,995.25
2022-12-08T01:23:48.923Z,995.26
2022-12-08T01:24:51.541Z,995.23
2022-12-08T01:25:54.147Z,995.31
2022-12-08T01:26:56.734Z,995.28
2022-12-08T01:27:59.278Z,995.23
2022-12-08T01:29:01.925Z,995.3
2022-12-08T01:30:05.739Z,995.25
2022-12-08T01:31:08.694Z,995.24
2022-12-08T01:32:11.356Z,995.25
2022-12-08T01:33:13.943Z,995.22
2022-12-08T01:34:16.593Z,995.2
2022-12-08T01:35:19.213Z,995.26
2022-12-08T01:36:21.829Z,995.25
2022-12-08T01:37:24.426Z,995.29
2022-12-08T01:38:27.047Z,995.29
2022-12-08T01:39:29.688Z,995.23
2022-12-08T01:40:32.320Z,995.31
2022-12-08T01:41:35.031Z,995.28
2022-12-08T01:42:37.553Z,995.27
2022-12-08T01:43:40.099Z,995.3
2022-12-08T01:44:42.691Z,995.25
2022-12-08T01:45:45.469Z,995.28
2022-12-08T01:46:51.672Z,995.24
2022-12-08T01:47:54.372Z,995.33
2022-12-08T01:48:56.936Z,995.29
2022-12-08T01:49:59.505Z,995.33
2022-12-08T01:51:02.113Z,995.26
2022-12-08T01:52:04.735Z,995.21
2022-12-08T01:53:07.352Z,995.25
2022-12-08T01:54:10.054Z,995.25
2022-12-08T01:55:12.639Z,995.27
2022-12-08T01:56:15.240Z,995.26
2022-12-08T01:57:18.868Z,995.19
2022-12-08T01:58:21.413Z,995.18
2022-12-08T01:59:24.051Z,995.18
2022-12-08T02:00:26.601Z,995.16
2022-12-08T02:01:29.471Z,995.14
2022-12-08T02:02:32.399Z,995.08
2022-12-08T02:03:35.050Z,995.04
2022-12-08T02:04:37.669Z,995.06
2022-12-08T02:05:40.262Z,995.01
2022-12-08T02:06:42.881Z,995.02
2022-12-08T02:07:45.698Z,995.02
2022-12-08T02:08:48.360Z,995.04
2022-12-08T02:09:51.040Z,995.05
2022-12-08T02:10:53.671Z,995.04
2022-12-08T02:11:56.238Z,995.03
2022-12-08T02:12:58.828Z,995.04
2022-12-08T02:14:01.436Z,995.02
2022-12-08T02:15:06.993Z,995.02
2022-12-08T02:16:10.007Z,994.97
2022-12-08T02:17:12.628Z,994.96
2022-12-08T02:18:15.309Z,994.98
2022-12-08T02:19:32.212Z,994.96
2022-12-08T02:20:34.280Z,994.95
2022-12-08T02:21:36.869Z,994.96
2022-12-08T02:22:39.499Z,994.93
2022-12-08T02:23:42.189Z,994.85
2022-12-08T02:24:44.802Z,994.87
2022-12-08T02:25:47.421Z,994.89
2022-12-08T02:26:50.045Z,994.81
2022-12-08T02:27:52.703Z,994.82
2022-12-08T02:28:55.384Z,994.86
2022-12-08T02:29:57.974Z,994.79
2022-12-08T02:31:00.769Z,994.79
2022-12-08T02:32:03.412Z,994.75
2022-12-08T02:33:06.016Z,994.75
2022-12-08T02:34:08.708Z,994.78
2022-12-08T02:35:11.391Z,994.69
2022-12-08T02:36:13.996Z,994.69
2022-12-08T02:37:16.606Z,994.67
2022-12-08T02:38:19.223Z,994.67
2022-12-08T02:39:21.907Z,994.66
2022-12-08T02:40:24.526Z,994.63
2022-12-08T02:41:27.199Z,994.59
2022-12-08T02:42:29.776Z,994.59
2022-12-08T02:43:32.417Z,994.57
2022-12-08T02:44:35.002Z,994.54
2022-12-08T02:45:37.685Z,994.6
2022-12-08T02:46:40.695Z,994.52
2022-12-08T02:47:43.308Z,994.53
2022-12-08T02:48:45.933Z,994.51
2022-12-08T02:49:48.583Z,994.48
2022-12-08T02:50:51.178Z,994.5
2022-12-08T02:51:53.788Z,994.48
2022-12-08T02:52:56.426Z,994.49
2022-12-08T02:53:59.014Z,994.48
2022-12-08T02:55:01.635Z,994.57
2022-12-08T02:56:04.222Z,994.49
2022-12-08T02:57:06.796Z,994.49
2022-12-08T02:58:09.377Z,994.5
2022-12-08T02:59:12.596Z,994.48
2022-12-08T03:00:15.186Z,994.48
2022-12-08T03:01:18.132Z,994.5
2022-12-08T03:02:21.051Z,994.44
2022-12-08T03:03:23.933Z,994.44
2022-12-08T03:04:26.558Z,994.36
2022-12-08T03:05:29.175Z,994.42
2022-12-08T03:06:31.839Z,994.44
2022-12-08T03:07:34.437Z,994.4
2022-12-08T03:08:37.049Z,994.34
2022-12-08T03:09:39.728Z,994.38
2022-12-08T03:10:42.341Z,994.37
2022-12-08T03:11:44.876Z,994.35
2022-12-08T03:12:47.503Z,994.4
2022-12-08T03:13:50.099Z,994.4
2022-12-08T03:14:52.745Z,994.38
2022-12-08T03:15:55.579Z,994.33
2022-12-08T03:16:58.218Z,994.31
2022-12-08T03:18:00.918Z,994.36
2022-12-08T03:19:03.525Z,994.36
2022-12-08T03:20:07.416Z,994.43
2022-12-08T03:21:10.607Z,994.41
2022-12-08T03:22:13.118Z,994.41
2022-12-08T03:23:15.752Z,994.43
2022-12-08T03:24:18.366Z,994.37
2022-12-08T03:25:20.987Z,994.35
2022-12-08T03:26:23.644Z,994.42
2022-12-08T03:27:26.236Z,994.35
2022-12-08T03:28:28.890Z,994.33
2022-12-08T03:29:31.512Z,994.34
2022-12-08T03:30:34.140Z,994.33
2022-12-08T03:31:37.101Z,994.34
2022-12-08T03:32:39.694Z,994.35
2022-12-08T03:33:42.277Z,994.33
2022-12-08T03:34:44.919Z,994.34
2022-12-08T03:35:47.563Z,994.28
2022-12-08T03:36:50.216Z,994.27
2022-12-08T03:37:52.878Z,994.27
2022-12-08T03:38:55.460Z,994.22
2022-12-08T03:39:58.082Z,994.18
2022-12-08T03:41:00.717Z,994.17
2022-12-08T03:42:03.304Z,994.14
2022-12-08T03:43:05.945Z,994.13
2022-12-08T03:44:08.614Z,994.09
2022-12-08T03:45:11.206Z,994.08
2022-12-08T03:46:13.969Z,994.02
2022-12-08T03:47:16.593Z,994.05
2022-12-08T03:48:19.247Z,994.03
2022-12-08T03:49:21.893Z,994
2022-12-08T03:50:24.655Z,993.99
2022-12-08T03:51:27.262Z,993.94
2022-12-08T03:52:29.940Z,993.95
2022-12-08T03:53:32.576Z,993.97
2022-12-08T03:54:35.201Z,993.86
2022-12-08T03:55:37.844Z,993.94
2022-12-08T03:56:40.429Z,993.96
2022-12-08T03:57:43.019Z,993.92
2022-12-08T03:58:45.629Z,993.88
2022-12-08T03:59:48.443Z,993.91
2022-12-08T04:00:51.076Z,993.91
2022-12-08T04:01:54.051Z,993.92
2022-12-08T04:02:56.986Z,993.9
2022-12-08T04:03:59.595Z,993.92
2022-12-08T04:05:02.181Z,993.92
2022-12-08T04:06:04.818Z,993.89
2022-12-08T04:07:07.405Z,993.85
2022-12-08T04:08:10.534Z,993.8
2022-12-08T04:09:13.142Z,993.81
2022-12-08T04:10:15.783Z,993.72
2022-12-08T04:11:18.380Z,993.78
2022-12-08T04:12:20.991Z,993.74
2022-12-08T04:13:23.597Z,993.8
2022-12-08T04:14:26.153Z,993.79
2022-12-08T04:15:28.954Z,993.77
2022-12-08T04:16:31.794Z,993.76
2022-12-08T04:17:34.426Z,993.8
2022-12-08T04:18:37.050Z,993.77
2022-12-08T04:19:39.717Z,993.76
2022-12-08T04:20:42.288Z,993.76
2022-12-08T04:21:44.971Z,993.74
2022-12-08T04:22:48.006Z,993.76
2022-12-08T04:23:57.603Z,993.72
2022-12-08T04:25:01.101Z,993.7
2022-12-08T04:26:03.793Z,993.7
2022-12-08T04:27:06.379Z,993.7
2022-12-08T04:28:08.959Z,993.73
2022-12-08T04:29:11.525Z,993.75
2022-12-08T04:30:14.132Z,993.74
2022-12-08T04:31:17.085Z,993.8
2022-12-08T04:32:19.713Z,993.79
2022-12-08T04:33:22.357Z,993.78
2022-12-08T04:34:24.985Z,993.8
2022-12-08T04:35:27.570Z,993.83
2022-12-08T04:36:30.209Z,993.78
2022-12-08T04:37:32.865Z,993.79
2022-12-08T04:38:35.431Z,993.8
2022-12-08T04:39:41.677Z,993.72
2022-12-08T04:40:44.107Z,993.76
2022-12-08T04:41:46.689Z,993.77
2022-12-08T04:42:49.293Z,993.79
2022-12-08T04:43:51.943Z,993.78
2022-12-08T04:44:54.626Z,993.77
2022-12-08T04:45:57.234Z,993.79
2022-12-08T04:47:00.194Z,993.77
2022-12-08T04:48:04.311Z,993.74
2022-12-08T04:49:06.686Z,993.79
2022-12-08T04:50:09.345Z,993.74
2022-12-08T04:51:11.931Z,993.75
2022-12-08T04:52:14.531Z,993.73
2022-12-08T04:53:17.138Z,993.74
2022-12-08T04:54:19.748Z,993.71
2022-12-08T04:55:22.403Z,993.72
2022-12-08T04:56:25.018Z,993.68
2022-12-08T04:57:27.687Z,993.7
2022-12-08T04:58:30.494Z,993.7
2022-12-08T04:59:33.097Z,993.71
2022-12-08T05:00:35.736Z,993.69
2022-12-08T05:01:39.029Z,993.66
2022-12-08T05:02:42.046Z,993.68
2022-12-08T05:03:44.674Z,993.72
2022-12-08T05:04:47.236Z,993.64
2022-12-08T05:05:49.855Z,993.67
2022-12-08T05:06:52.466Z,993.66
2022-12-08T05:07:55.252Z,993.62
2022-12-08T05:08:57.892Z,993.65
2022-12-08T05:10:00.573Z,993.65
2022-12-08T05:11:03.856Z,993.6
2022-12-08T05:12:06.489Z,993.62
2022-12-08T05:13:09.073Z,993.63
2022-12-08T05:14:17.176Z,993.58
2022-12-08T05:15:19.938Z,993.62
2022-12-08T05:16:22.785Z,993.61
2022-12-08T05:17:25.424Z,993.63
2022-12-08T05:18:28.025Z,993.59
2022-12-08T05:19:38.718Z,993.64
2022-12-08T05:20:40.844Z,993.57
2022-12-08T05:21:48.040Z,993.54
2022-12-08T05:22:50.065Z,993.54
2022-12-08T05:23:52.813Z,993.49
2022-12-08T05:24:55.296Z,993.53
2022-12-08T05:25:58.118Z,993.46
2022-12-08T05:27:00.788Z,993.47
2022-12-08T05:28:40.582Z,993.5
2022-12-08T05:29:25.221Z,993.46
2022-12-08T05:30:27.998Z,993.41
2022-12-08T05:31:30.792Z,993.5
2022-12-08T05:32:33.403Z,993.51
2022-12-08T05:33:35.993Z,993.53
2022-12-08T05:34:38.598Z,993.52
2022-12-08T05:35:41.820Z,993.53
2022-12-08T05:36:44.444Z,993.48
2022-12-08T05:37:47.094Z,993.49
2022-12-08T05:38:49.695Z,993.5
2022-12-08T05:39:52.322Z,993.53
2022-12-08T05:41:02.918Z,993.48
2022-12-08T05:42:05.127Z,993.48
2022-12-08T05:43:07.711Z,993.47
2022-12-08T05:44:10.295Z,993.48
2022-12-08T05:45:12.899Z,993.44
2022-12-08T05:46:15.808Z,993.47
2022-12-08T05:47:18.408Z,993.41
2022-12-08T05:48:21.012Z,993.5
2022-12-08T05:49:23.689Z,993.45
2022-12-08T05:50:45.149Z,993.41
2022-12-08T05:51:47.292Z,993.46
2022-12-08T05:52:49.884Z,993.41
2022-12-08T05:53:52.520Z,993.43
2022-12-08T05:54:55.659Z,993.4
2022-12-08T05:55:58.234Z,993.43
2022-12-08T05:57:00.806Z,993.36
2022-12-08T05:58:08.466Z,993.39
2022-12-08T05:59:10.739Z,993.35
2022-12-08T06:00:13.315Z,993.36
2022-12-08T06:01:15.946Z,993.4
2022-12-08T06:02:25.705Z,993.42
2022-12-08T06:03:28.911Z,993.4
2022-12-08T06:04:31.497Z,993.37
2022-12-08T06:05:34.149Z,993.42
2022-12-08T06:06:36.803Z,993.43
2022-12-08T06:07:39.693Z,993.41
2022-12-08T06:08:42.538Z,993.43
2022-12-08T06:09:45.135Z,993.45
2022-12-08T06:10:47.786Z,993.46
2022-12-08T06:11:50.389Z,993.45
2022-12-08T06:12:52.981Z,993.48
2022-12-08T06:13:56.098Z,993.46
2022-12-08T06:14:58.671Z,993.43
2022-12-08T06:16:01.896Z,993.41
2022-12-08T06:17:06.732Z,993.46
2022-12-08T06:18:09.228Z,993.58
2022-12-08T06:19:11.864Z,993.49
2022-12-08T06:20:14.466Z,993.45
2022-12-08T06:21:22.599Z,993.5
2022-12-08T06:22:24.845Z,993.53
2022-12-08T06:23:27.412Z,993.5
2022-12-08T06:24:30.045Z,993.45
2022-12-08T06:25:33.255Z,993.46
2022-12-08T06:26:35.787Z,993.44
2022-12-08T06:27:38.431Z,993.47
2022-12-08T06:28:41.653Z,993.45
2022-12-08T06:29:44.898Z,993.42
2022-12-08T06:30:48.039Z,993.44
2022-12-08T06:31:50.908Z,993.46
2022-12-08T06:32:53.503Z,993.45
2022-12-08T06:33:56.095Z,993.46
2022-12-08T06:34:58.708Z,993.45
2022-12-08T06:36:01.348Z,993.47
2022-12-08T06:37:03.989Z,993.49
2022-12-08T06:38:06.627Z,993.44
2022-12-08T06:39:09.276Z,993.49
2022-12-08T06:40:15.416Z,993.45
2022-12-08T06:41:27.866Z,993.44
2022-12-08T06:42:30.010Z,993.53
2022-12-08T06:43:32.572Z,993.49
2022-12-08T06:44:35.151Z,993.52
2022-12-08T06:45:38.667Z,993.47
2022-12-08T06:46:41.487Z,993.46
2022-12-08T06:47:44.087Z,993.46
2022-12-08T06:48:46.647Z,993.42
2022-12-08T06:49:49.499Z,993.47
2022-12-08T06:50:52.606Z,993.44
2022-12-08T06:51:55.000Z,993.46
2022-12-08T06:53:06.027Z,993.44
2022-12-08T06:54:08.743Z,993.52
2022-12-08T06:55:51.191Z,993.46
2022-12-08T06:56:32.995Z,993.5
2022-12-08T06:57:38.998Z,993.43
2022-12-08T06:58:53.466Z,993.5
2022-12-08T06:59:55.566Z,993.47
2022-12-08T07:01:03.181Z,993.46
2022-12-08T07:02:05.629Z,993.48
2022-12-08T07:03:08.259Z,993.41
2022-12-08T07:04:10.831Z,993.49
2022-12-08T07:05:13.437Z,993.49
2022-12-08T07:06:16.049Z,993.51
2022-12-08T07:07:19.242Z,993.56
2022-12-08T07:08:27.414Z,993.55
2022-12-08T07:09:31.218Z,993.56
2022-12-08T07:10:33.557Z,993.56
2022-12-08T07:11:41.751Z,993.58
2022-12-08T07:12:44.129Z,993.56
2022-12-08T07:13:52.268Z,993.52
2022-12-08T07:14:54.437Z,993.57
2022-12-08T07:15:57.079Z,993.53
2022-12-08T07:17:00.049Z,993.53
2022-12-08T07:18:08.306Z,993.55
2022-12-08T07:19:10.430Z,993.54
2022-12-08T07:20:13.626Z,993.58
2022-12-08T07:21:16.204Z,993.58
2022-12-08T07:22:18.816Z,993.57
2022-12-08T07:23:21.716Z,993.59
2022-12-08T07:24:25.893Z,993.61
2022-12-08T07:25:28.221Z,993.63
2022-12-08T07:26:30.808Z,993.57
2022-12-08T07:27:34.975Z,993.61
2022-12-08T07:28:38.089Z,993.61
2022-12-08T07:29:40.717Z,993.6
2022-12-08T07:30:43.578Z,993.64
2022-12-08T07:31:46.279Z,993.69
2022-12-08T07:32:49.173Z,993.68
2022-12-08T07:33:51.992Z,993.68
2022-12-08T07:34:54.658Z,993.6
2022-12-08T07:35:57.524Z,993.65
2022-12-08T07:37:00.111Z,993.64
2022-12-08T07:38:02.952Z,993.59
2022-12-08T07:39:05.588Z,993.64
2022-12-08T07:40:08.825Z,993.65
2022-12-08T07:41:17.872Z,993.59
2022-12-08T07:42:20.032Z,993.6
2022-12-08T07:43:22.579Z,993.61
2022-12-08T07:44:25.191Z,993.64
2022-12-08T07:45:32.243Z,993.59
2022-12-08T07:46:34.961Z,993.58
2022-12-08T07:47:37.548Z,993.6
2022-12-08T07:48:40.272Z,993.62
2022-12-08T07:49:43.044Z,993.57
2022-12-08T07:50:45.756Z,993.6
2022-12-08T07:51:48.339Z,993.53
2022-12-08T07:52:51.017Z,993.5
2022-12-08T07:53:55.754Z,993.54
2022-12-08T07:54:58.289Z,993.54
2022-12-08T07:56:00.893Z,993.55
2022-12-08T07:57:04.097Z,993.58
2022-12-08T07:58:06.687Z,993.54
2022-12-08T07:59:09.297Z,993.61
2022-12-08T08:00:11.907Z,993.61
2022-12-08T08:01:16.149Z,993.52
2022-12-08T08:02:26.831Z,993.63
2022-12-08T08:03:29.157Z,993.57
2022-12-08T08:04:32.112Z,993.55
2022-12-08T08:05:41.303Z,993.56
2022-12-08T08:06:43.456Z,993.56
2022-12-08T08:07:46.308Z,993.56
2022-12-08T08:08:49.186Z,993.55
2022-12-08T08:09:51.759Z,993.53
2022-12-08T08:10:54.641Z,993.52
2022-12-08T08:12:30.549Z,993.53
2022-12-08T08:13:19.041Z,993.54
2022-12-08T08:14:21.740Z,993.55
2022-12-08T08:15:24.255Z,993.55
2022-12-08T08:16:28.515Z,993.58
2022-12-08T08:17:33.027Z,993.57
2022-12-08T08:18:36.062Z,993.54
2022-12-08T08:19:38.727Z,993.59
2022-12-08T08:20:46.919Z,993.55
2022-12-08T08:21:49.108Z,993.53
2022-12-08T08:22:54.276Z,993.55
2022-12-08T08:23:56.848Z,993.56
2022-12-08T08:24:59.415Z,993.53
2022-12-08T08:26:02.605Z,993.49
2022-12-08T08:27:05.201Z,993.52
2022-12-08T08:28:10.318Z,993.48
2022-12-08T08:29:12.613Z,993.56
2022-12-08T08:30:21.647Z,993.5
2022-12-08T08:31:24.075Z,993.48
2022-12-08T08:32:26.725Z,993.51
2022-12-08T08:33:39.380Z,993.45
2022-12-08T08:34:48.305Z,993.49
2022-12-08T08:35:50.472Z,993.47
2022-12-08T08:36:53.291Z,993.4
2022-12-08T08:37:55.881Z,993.42
2022-12-08T08:38:59.058Z,993.46
2022-12-08T08:40:03.182Z,993.38
2022-12-08T08:41:05.904Z,993.36
2022-12-08T08:42:08.541Z,993.33
2022-12-08T08:43:11.456Z,993.34
2022-12-08T08:44:14.078Z,993.29
2022-12-08T08:45:16.633Z,993.34
2022-12-08T08:46:19.409Z,993.35
2022-12-08T08:47:22.906Z,993.35
2022-12-08T08:48:31.012Z,993.33
2022-12-08T08:49:33.254Z,993.33
2022-12-08T08:50:38.215Z,993.33
2022-12-08T08:51:40.614Z,993.35
2022-12-08T08:52:43.302Z,993.33
2022-12-08T08:53:45.864Z,993.32
2022-12-08T08:54:53.985Z,993.34
2022-12-08T08:55:56.206Z,993.31
2022-12-08T08:56:58.875Z,993.26
2022-12-08T08:58:01.492Z,993.24
2022-12-08T08:59:04.111Z,993.27
2022-12-08T09:00:08.483Z,993.25
2022-12-08T09:01:11.350Z,993.3
2022-12-08T09:02:14.254Z,993.22
2022-12-08T09:03:17.023Z,993.22
2022-12-08T09:04:19.725Z,993.25
2022-12-08T09:05:22.366Z,993.22
2022-12-08T09:06:25.488Z,993.23
2022-12-08T09:07:28.189Z,993.2
2022-12-08T09:08:31.266Z,993.25
2022-12-08T09:09:33.928Z,993.16
2022-12-08T09:10:36.538Z,993.21
2022-12-08T09:11:39.136Z,993.2
2022-12-08T09:12:41.817Z,993.16
2022-12-08T09:13:44.426Z,993.21
2022-12-08T09:14:47.565Z,993.15
2022-12-08T09:15:50.377Z,993.16
2022-12-08T09:16:52.990Z,993.18
2022-12-08T09:17:56.120Z,993.15
2022-12-08T09:18:58.683Z,993.14
2022-12-08T09:20:02.565Z,993.17
2022-12-08T09:21:10.909Z,993.13
2022-12-08T09:22:18.654Z,993.16
2022-12-08T09:23:20.874Z,993.14
2022-12-08T09:24:23.525Z,993.09
2022-12-08T09:25:26.152Z,993.14
2022-12-08T09:26:35.283Z,993.11
2022-12-08T09:27:37.513Z,993.11
2022-12-08T09:28:40.155Z,993.13
2022-12-08T09:29:42.814Z,993.17
2022-12-08T09:30:45.418Z,993.11
2022-12-08T09:31:48.384Z,993.13
2022-12-08T09:32:51.023Z,993.08
2022-12-08T09:33:53.745Z,993.09
2022-12-08T09:34:56.351Z,993.07
2022-12-08T09:35:58.909Z,993.1
2022-12-08T09:37:11.503Z,993.05
2022-12-08T09:38:13.752Z,993.09
2022-12-08T09:39:16.352Z,993.04
2022-12-08T09:40:19.577Z,993.08
2022-12-08T09:41:22.209Z,993.04
2022-12-08T09:42:24.815Z,993.04
2022-12-08T09:43:27.457Z,993.08
2022-12-08T09:44:30.170Z,993.05
2022-12-08T09:45:32.778Z,993.05
2022-12-08T09:46:35.776Z,993.12
2022-12-08T09:47:38.444Z,993.02
2022-12-08T09:48:41.049Z,993.07
2022-12-08T09:49:43.620Z,993.08
2022-12-08T09:50:46.208Z,993.08
2022-12-08T09:51:48.812Z,993.04
2022-12-08T09:52:51.918Z,993
2022-12-08T09:53:54.619Z,993.03
2022-12-08T09:54:57.443Z,992.99
2022-12-08T09:56:05.646Z,992.98
2022-12-08T09:57:07.847Z,993.01
2022-12-08T09:58:13.348Z,992.87
2022-12-08T09:59:15.863Z,992.88
2022-12-08T10:00:18.481Z,992.83
2022-12-08T10:01:21.311Z,992.81
2022-12-08T10:02:24.361Z,992.79
2022-12-08T10:03:27.237Z,992.79
2022-12-08T10:04:30.187Z,992.78
2022-12-08T10:05:33.169Z,992.77
2022-12-08T10:06:35.819Z,992.74
2022-12-08T10:07:38.681Z,992.78
2022-12-08T10:08:41.375Z,992.77
2022-12-08T10:09:54.631Z,992.78
2022-12-08T10:10:56.865Z,992.69
2022-12-08T10:11:59.454Z,992.73
2022-12-08T10:13:02.120Z,992.77
2022-12-08T10:14:04.737Z,992.75
2022-12-08T10:15:07.958Z,992.77
2022-12-08T10:16:29.670Z,992.73
2022-12-08T10:17:31.871Z,992.75
2022-12-08T10:18:34.441Z,992.7
2022-12-08T10:19:37.045Z,992.7
2022-12-08T10:20:39.678Z,992.68
2022-12-08T10:21:42.327Z,992.7
2022-12-08T10:22:45.546Z,992.66
2022-12-08T10:23:48.048Z,992.6
2022-12-08T10:24:50.776Z,992.61
2022-12-08T10:25:53.410Z,992.6
2022-12-08T10:26:56.650Z,992.57
2022-12-08T10:27:59.240Z,992.55
2022-12-08T10:29:01.888Z,992.55
2022-12-08T10:30:06.005Z,992.52
2022-12-08T10:31:14.452Z,992.52
2022-12-08T10:32:23.293Z,992.49
2022-12-08T10:33:25.434Z,992.47
2022-12-08T10:34:27.988Z,992.51
2022-12-08T10:35:30.659Z,992.48
2022-12-08T10:36:33.230Z,992.52
2022-12-08T10:37:35.881Z,992.43
2022-12-08T10:38:38.456Z,992.49
2022-12-08T10:39:41.072Z,992.48
2022-12-08T10:40:49.237Z,992.44
2022-12-08T10:41:51.563Z,992.45
2022-12-08T10:42:54.217Z,992.45
2022-12-08T10:43:56.855Z,992.38
2022-12-08T10:44:59.433Z,992.45
2022-12-08T10:46:02.056Z,992.41
2022-12-08T10:47:04.946Z,992.45
2022-12-08T10:48:07.627Z,992.41
2022-12-08T10:49:10.242Z,992.45
2022-12-08T10:50:13.892Z,992.41
2022-12-08T10:51:16.483Z,992.39
2022-12-08T10:52:19.137Z,992.4
2022-12-08T10:53:21.758Z,992.41
2022-12-08T10:54:27.858Z,992.33
2022-12-08T10:55:30.348Z,992.35
2022-12-08T10:56:33.386Z,992.33
2022-12-08T10:57:36.389Z,992.28
2022-12-08T10:58:38.998Z,992.26
2022-12-08T10:59:41.997Z,992.24
2022-12-08T11:00:51.879Z,992.23
2022-12-08T11:01:55.365Z,992.27
2022-12-08T11:02:58.296Z,992.23
2022-12-08T11:04:00.919Z,992.18
2022-12-08T11:05:03.570Z,992.21
2022-12-08T11:06:11.386Z,992.16
2022-12-08T11:07:13.715Z,992.13
2022-12-08T11:08:16.589Z,992.11
2022-12-08T11:09:19.819Z,992.07
2022-12-08T11:10:22.457Z,992.01
2022-12-08T11:11:29.919Z,992.01
2022-12-08T11:12:32.204Z,992.03
2022-12-08T11:13:34.884Z,992.02
2022-12-08T11:14:37.475Z,992.03
2022-12-08T11:15:40.175Z,992.02
2022-12-08T11:16:43.250Z,992
2022-12-08T11:17:45.873Z,991.99
2022-12-08T11:18:49.078Z,992.04
2022-12-08T11:19:51.676Z,992
2022-12-08T11:20:54.250Z,991.97
2022-12-08T11:21:56.941Z,991.92
2022-12-08T11:22:59.583Z,991.92
2022-12-08T11:24:02.245Z,991.9
2022-12-08T11:25:04.874Z,991.89
2022-12-08T11:26:07.483Z,991.92
2022-12-08T11:27:10.122Z,991.83
2022-12-08T11:28:12.767Z,991.84
2022-12-08T11:29:15.443Z,991.88
2022-12-08T11:30:19.783Z,991.82
2022-12-08T11:31:22.834Z,991.84
2022-12-08T11:32:25.427Z,991.78
2022-12-08T11:33:28.092Z,991.84
2022-12-08T11:34:30.736Z,991.81
2022-12-08T11:35:33.388Z,991.82
2022-12-08T11:36:35.979Z,991.82
2022-12-08T11:37:39.231Z,991.84
2022-12-08T11:38:41.890Z,991.76
2022-12-08T11:39:44.515Z,991.74
2022-12-08T11:40:50.777Z,991.72
2022-12-08T11:41:53.172Z,991.74
2022-12-08T11:42:55.803Z,991.71
2022-12-08T11:43:58.441Z,991.68
2022-12-08T11:45:01.236Z,991.69
2022-12-08T11:46:04.214Z,991.68
2022-12-08T11:47:06.859Z,991.65
2022-12-08T11:48:09.535Z,991.64
2022-12-08T11:49:12.183Z,991.63
2022-12-08T11:50:20.228Z,991.68
2022-12-08T11:51:22.560Z,991.64
2022-12-08T11:52:25.422Z,991.66
2022-12-08T11:53:28.864Z,991.63
2022-12-08T11:54:31.449Z,991.61
2022-12-08T11:55:49.810Z,991.58
2022-12-08T11:56:52.217Z,991.47
2022-12-08T11:57:56.399Z,991.56
2022-12-08T11:58:58.927Z,991.54
2022-12-08T12:00:03.599Z,991.51
2022-12-08T12:01:06.532Z,991.46
2022-12-08T12:02:11.032Z,991.48
2022-12-08T12:03:14.357Z,991.41
2022-12-08T12:04:16.944Z,991.44
2022-12-08T12:05:56.929Z,991.38
2022-12-08T12:06:55.909Z,991.35
2022-12-08T12:07:58.362Z,991.36
2022-12-08T12:09:01.274Z,991.39
2022-12-08T12:10:05.306Z,991.37
2022-12-08T12:11:08.447Z,991.35
2022-12-08T12:12:11.022Z,991.34
2022-12-08T12:13:13.695Z,991.35
2022-12-08T12:14:16.278Z,991.41
2022-12-08T12:15:18.958Z,991.3
2022-12-08T12:16:21.822Z,991.31
2022-12-08T12:17:24.493Z,991.31
2022-12-08T12:18:27.322Z,991.39
2022-12-08T12:19:30.135Z,991.33
2022-12-08T12:20:32.763Z,991.34
2022-12-08T12:21:35.957Z,991.3
2022-12-08T12:22:38.585Z,991.34
2022-12-08T12:23:41.196Z,991.31
2022-12-08T12:24:43.746Z,991.36
2022-12-08T12:25:46.361Z,991.31
2022-12-08T12:26:49.140Z,991.34
2022-12-08T12:27:58.009Z,991.32
2022-12-08T12:29:00.215Z,991.31
2022-12-08T12:30:13.698Z,991.29
2022-12-08T12:31:16.184Z,991.25
2022-12-08T12:32:18.814Z,991.28
2022-12-08T12:33:32.028Z,991.26
2022-12-08T12:34:35.231Z,991.26
2022-12-08T12:35:44.315Z,991.31
2022-12-08T12:36:46.445Z,991.29
2022-12-08T12:37:49.073Z,991.31
2022-12-08T12:38:51.641Z,991.34
2022-12-08T12:39:54.185Z,991.27
2022-12-08T12:40:56.975Z,991.23
2022-12-08T12:41:59.779Z,991.24
2022-12-08T12:43:03.241Z,991.27
2022-12-08T12:44:05.708Z,991.24
2022-12-08T12:45:08.244Z,991.24
2022-12-08T12:46:11.173Z,991.28
2022-12-08T12:47:15.280Z,991.28
2022-12-08T12:48:17.937Z,991.29
2022-12-08T12:49:31.125Z,991.2
2022-12-08T12:50:34.017Z,991.24
2022-12-08T12:51:37.819Z,991.14
2022-12-08T12:52:41.932Z,991.21
2022-12-08T12:53:49.966Z,991.23
2022-12-08T12:54:55.675Z,991.21
2022-12-08T12:55:57.968Z,991.24
2022-12-08T12:57:00.590Z,991.23
2022-12-08T12:58:03.721Z,991.25
2022-12-08T12:59:06.290Z,991.22
2022-12-08T13:00:10.644Z,991.21
2022-12-08T13:01:14.196Z,991.23
2022-12-08T13:02:20.796Z,991.22
2022-12-08T13:03:23.162Z,991.19
2022-12-08T13:04:26.189Z,991.16
2022-12-08T13:05:39.068Z,991.17
2022-12-08T13:06:44.885Z,991.17
2022-12-08T13:07:48.129Z,991.18
2022-12-08T13:08:50.664Z,991.12
2022-12-08T13:09:53.306Z,991.14
2022-12-08T13:10:55.897Z,991.17
2022-12-08T13:12:09.983Z,991.14
2022-12-08T13:13:12.129Z,991.09
2022-12-08T13:14:14.715Z,991.15